createdAt,value
2022-12-31T00:00:11.394Z,24.37
2022-12-31T00:02:38.031Z,23.08
2022-12-31T00:05:05.017Z,25.77
2022-12-31T00:09:59.409Z,31.35
2022-12-31T00:12:25.992Z,24.17
2022-12-31T00:14:52.538Z,23.80
2022-12-31T00:17:19.157Z,25.23
2022-12-31T00:19:45.767Z,29.10
2022-12-31T00:22:12.313Z,23.87
2022-12-31T00:24:38.888Z,22.17
2022-12-31T00:27:05.493Z,21.90
2022-12-31T00:29:32.062Z,26.17
2022-12-31T00:31:58.636Z,22.30
2022-12-31T00:34:25.196Z,24.17
2022-12-31T00:36:52.840Z,23.20
2022-12-31T00:39:19.430Z,23.23
2022-12-31T00:41:46.094Z,23.40
2022-12-31T00:44:12.867Z,21.92
2022-12-31T00:49:05.331Z,22.58
2022-12-31T00:51:31.984Z,21.37
2022-12-31T00:53:59.216Z,20.85
2022-12-31T00:56:29.755Z,20.58
2022-12-31T00:58:56.993Z,22.52
2022-12-31T01:01:28.113Z,22.30
2022-12-31T01:03:58.575Z,21.70
2022-12-31T01:06:25.129Z,21.17
2022-12-31T01:08:53.157Z,20.95
2022-12-31T01:11:20.511Z,21.90
2022-12-31T01:13:56.049Z,20.62
2022-12-31T01:16:30.350Z,22.55
2022-12-31T01:19:03.398Z,22.13
2022-12-31T01:23:58.187Z,22.08
2022-12-31T01:26:24.989Z,22.60
2022-12-31T01:28:51.721Z,22.60
2022-12-31T01:31:20.281Z,20.62
2022-12-31T01:33:47.588Z,21.58
2022-12-31T01:36:26.604Z,20.50
2022-12-31T01:38:55.421Z,23.30
2022-12-31T01:41:28.822Z,21.05
2022-12-31T01:44:01.105Z,23.58
2022-12-31T01:46:45.513Z,23.15
2022-12-31T01:49:31.393Z,21.85
2022-12-31T01:52:22.675Z,22.50
2022-12-31T01:55:05.918Z,22.45
2022-12-31T01:57:32.835Z,22.02
2022-12-31T02:00:01.701Z,20.85
2022-12-31T02:02:28.694Z,21.23
2022-12-31T02:04:58.387Z,20.27
2022-12-31T02:07:25.235Z,19.40
2022-12-31T02:09:52.204Z,19.60
2022-12-31T02:12:18.948Z,20.92
2022-12-31T02:14:51.995Z,21.23
2022-12-31T02:17:43.782Z,20.75
2022-12-31T02:20:13.412Z,21.00
2022-12-31T02:23:04.747Z,20.55
2022-12-31T02:25:49.103Z,21.27
2022-12-31T02:28:37.631Z,19.87
2022-12-31T02:31:12.374Z,20.85
2022-12-31T02:33:44.678Z,20.15
2022-12-31T02:36:34.675Z,21.73
2022-12-31T02:39:04.110Z,20.00
2022-12-31T02:41:49.261Z,20.75
2022-12-31T02:44:24.568Z,21.83
2022-12-31T02:47:13.584Z,21.35
2022-12-31T02:50:17.506Z,22.27
2022-12-31T02:53:02.161Z,22.00
2022-12-31T02:55:53.213Z,21.27
2022-12-31T02:58:55.382Z,21.83
2022-12-31T03:01:48.925Z,22.48
2022-12-31T03:04:32.232Z,21.25
2022-12-31T03:12:18.681Z,23.02
2022-12-31T03:14:45.368Z,22.17
2022-12-31T03:17:12.442Z,23.02
2022-12-31T03:19:57.743Z,22.65
2022-12-31T03:22:27.468Z,20.27
2022-12-31T03:25:28.880Z,21.83
2022-12-31T03:27:55.549Z,22.77
2022-12-31T03:30:23.967Z,21.90
2022-12-31T03:32:51.269Z,20.77
2022-12-31T03:35:20.309Z,24.73
2022-12-31T03:37:48.354Z,20.80
2022-12-31T03:40:16.392Z,22.45
2022-12-31T03:42:43.011Z,20.23
2022-12-31T03:45:10.919Z,21.37
2022-12-31T03:47:38.073Z,20.83
2022-12-31T03:50:06.517Z,22.20
2022-12-31T03:52:33.117Z,21.05
2022-12-31T03:54:59.661Z,20.65
2022-12-31T03:57:26.220Z,21.55
2022-12-31T03:59:52.813Z,22.08
2022-12-31T04:02:23.255Z,21.98
2022-12-31T04:04:54.753Z,21.60
2022-12-31T04:07:21.333Z,20.45
2022-12-31T04:09:47.895Z,21.80
2022-12-31T04:12:14.504Z,20.88
2022-12-31T04:14:41.271Z,20.98
2022-12-31T04:17:07.830Z,22.67
2022-12-31T04:19:34.408Z,21.42
2022-12-31T04:22:00.984Z,21.98
2022-12-31T04:24:27.669Z,21.85
2022-12-31T04:26:54.222Z,22.05
2022-12-31T04:29:20.842Z,21.17
2022-12-31T04:31:47.515Z,22.10
2022-12-31T04:34:14.184Z,23.20
2022-12-31T04:36:40.769Z,22.15
2022-12-31T04:39:07.386Z,22.37
2022-12-31T04:41:34.374Z,23.23
2022-12-31T04:44:01.113Z,23.40
2022-12-31T04:46:30.934Z,23.42
2022-12-31T04:48:57.745Z,23.00
2022-12-31T04:51:25.355Z,22.95
2022-12-31T04:53:52.419Z,22.83
2022-12-31T04:56:19.091Z,21.00
2022-12-31T04:58:45.883Z,21.75
2022-12-31T05:01:12.881Z,22.90
2022-12-31T05:03:39.663Z,22.62
2022-12-31T05:06:12.043Z,23.38
2022-12-31T05:08:38.691Z,25.08
2022-12-31T05:11:05.394Z,21.55
2022-12-31T05:13:33.669Z,23.52
2022-12-31T05:16:01.524Z,21.98
2022-12-31T05:18:28.298Z,22.65
2022-12-31T05:20:55.128Z,23.38
2022-12-31T05:23:21.731Z,21.85
2022-12-31T05:25:48.643Z,22.02
2022-12-31T05:28:16.016Z,23.45
2022-12-31T05:30:43.193Z,22.35
2022-12-31T05:33:10.394Z,22.58
2022-12-31T05:35:37.211Z,21.20
2022-12-31T05:38:03.886Z,21.62
2022-12-31T05:40:30.514Z,22.30
2022-12-31T05:42:57.118Z,23.50
2022-12-31T05:45:30.109Z,21.50
2022-12-31T05:47:57.440Z,22.25
2022-12-31T05:50:24.053Z,21.87
2022-12-31T05:52:50.722Z,21.27
2022-12-31T05:55:17.408Z,22.02
2022-12-31T05:57:44.040Z,23.00
2022-12-31T06:00:11.660Z,22.75
2022-12-31T06:02:38.284Z,21.85
2022-12-31T06:05:05.388Z,21.12
2022-12-31T06:07:31.977Z,20.15
2022-12-31T06:09:58.658Z,22.13
2022-12-31T06:12:25.255Z,23.77
2022-12-31T06:14:51.810Z,22.20
2022-12-31T06:17:19.305Z,25.80
2022-12-31T06:19:47.012Z,25.75
2022-12-31T06:22:13.906Z,26.52
2022-12-31T06:24:42.276Z,27.10
2022-12-31T06:27:09.101Z,23.48
2022-12-31T06:29:35.715Z,23.95
2022-12-31T06:32:02.356Z,23.65
2022-12-31T06:34:28.929Z,23.40
2022-12-31T06:36:55.473Z,24.75
2022-12-31T06:39:22.051Z,22.90
2022-12-31T06:41:48.639Z,24.25
2022-12-31T06:44:15.312Z,27.45
2022-12-31T06:46:42.976Z,24.92
2022-12-31T06:49:09.735Z,26.95
2022-12-31T06:51:36.297Z,29.00
2022-12-31T06:54:05.585Z,26.58
2022-12-31T06:56:34.673Z,27.27
2022-12-31T06:59:03.095Z,26.70
2022-12-31T07:01:39.745Z,24.37
2022-12-31T07:04:28.202Z,23.55
2022-12-31T07:07:32.508Z,23.30
2022-12-31T07:10:49.832Z,22.92
2022-12-31T07:13:26.574Z,23.35
2022-12-31T07:16:20.468Z,23.73
2022-12-31T07:19:05.832Z,24.23
2022-12-31T07:21:38.440Z,25.05
2022-12-31T07:24:07.317Z,23.58
2022-12-31T07:26:56.964Z,22.13
2022-12-31T07:29:57.722Z,22.00
2022-12-31T07:32:29.864Z,24.20
2022-12-31T07:35:28.443Z,23.13
2022-12-31T07:38:12.285Z,23.38
2022-12-31T07:41:10.175Z,23.92
2022-12-31T07:44:09.649Z,23.98
2022-12-31T07:46:43.978Z,25.27
2022-12-31T07:49:14.291Z,26.15
2022-12-31T07:51:42.138Z,25.88
2022-12-31T07:54:13.571Z,26.12
2022-12-31T07:56:41.069Z,26.48
2022-12-31T07:59:24.587Z,25.15
2022-12-31T08:02:22.527Z,25.33
2022-12-31T08:05:26.435Z,24.42
2022-12-31T08:08:15.703Z,22.05
2022-12-31T08:10:59.935Z,21.67
2022-12-31T08:13:27.380Z,24.87
2022-12-31T08:15:54.354Z,24.12
2022-12-31T08:18:21.179Z,23.87
2022-12-31T08:21:20.638Z,23.77
2022-12-31T08:24:28.624Z,23.05
2022-12-31T08:27:08.169Z,21.83
2022-12-31T08:29:42.409Z,23.30
2022-12-31T08:32:17.851Z,23.27
2022-12-31T08:35:14.852Z,23.45
2022-12-31T08:37:50.296Z,22.17
2022-12-31T08:40:26.348Z,24.12
2022-12-31T08:43:05.106Z,22.95
2022-12-31T08:45:41.848Z,23.25
2022-12-31T08:48:25.134Z,24.77
2022-12-31T08:53:18.590Z,23.35
2022-12-31T08:55:48.235Z,25.77
2022-12-31T08:58:42.486Z,25.52
2022-12-31T09:01:10.625Z,24.70
2022-12-31T09:03:58.450Z,22.95
2022-12-31T09:06:53.907Z,22.77
2022-12-31T09:09:46.733Z,24.33
2022-12-31T09:12:38.397Z,22.80
2022-12-31T09:15:25.591Z,20.77
2022-12-31T09:17:52.580Z,23.33
2022-12-31T09:20:42.978Z,24.60
2022-12-31T09:23:14.601Z,24.23
2022-12-31T09:25:50.915Z,24.80
2022-12-31T09:28:54.489Z,23.58
2022-12-31T09:31:54.248Z,23.60
2022-12-31T09:34:45.966Z,22.10
2022-12-31T09:37:22.276Z,24.92
2022-12-31T09:39:49.341Z,24.00
2022-12-31T09:42:27.934Z,24.08
2022-12-31T09:45:12.803Z,23.67
2022-12-31T09:48:00.338Z,24.05
2022-12-31T09:50:32.848Z,23.45
2022-12-31T09:53:14.898Z,22.70
2022-12-31T09:55:57.578Z,24.50
2022-12-31T09:58:40.896Z,23.90
2022-12-31T10:03:46.231Z,23.67
2022-12-31T10:06:31.882Z,23.55
2022-12-31T10:09:30.998Z,23.45
2022-12-31T10:12:00.380Z,23.25
2022-12-31T10:14:35.950Z,21.52
2022-12-31T10:17:02.496Z,23.60
2022-12-31T10:19:53.444Z,22.23
2022-12-31T10:22:45.482Z,22.52
2022-12-31T10:25:14.980Z,24.42
2022-12-31T10:28:03.607Z,23.42
2022-12-31T10:30:34.495Z,23.58
2022-12-31T10:33:18.276Z,25.10
2022-12-31T10:36:13.312Z,21.60
2022-12-31T10:39:15.338Z,22.75
2022-12-31T10:42:06.837Z,22.02
2022-12-31T10:44:42.683Z,22.08
2022-12-31T10:47:30.750Z,22.87
2022-12-31T10:50:34.948Z,22.27
2022-12-31T10:53:18.148Z,21.73
2022-12-31T10:58:33.039Z,24.08
2022-12-31T11:01:11.961Z,24.48
2022-12-31T11:03:47.951Z,24.00
2022-12-31T11:06:32.557Z,25.85
2022-12-31T11:09:59.546Z,26.27
2022-12-31T11:12:41.048Z,25.05
2022-12-31T11:15:16.516Z,23.00
2022-12-31T11:17:59.475Z,23.38
2022-12-31T11:20:50.124Z,23.23
2022-12-31T11:23:30.650Z,23.60
2022-12-31T11:26:24.684Z,25.00
2022-12-31T11:29:16.518Z,25.35
2022-12-31T11:32:02.110Z,22.75
2022-12-31T11:38:25.878Z,23.70
2022-12-31T11:41:03.495Z,23.10
2022-12-31T11:43:40.842Z,25.77
2022-12-31T11:46:10.411Z,26.10
2022-12-31T11:48:44.362Z,24.45
2022-12-31T11:51:58.268Z,25.70
2022-12-31T11:57:16.421Z,28.05
2022-12-31T11:59:43.783Z,29.12
2022-12-31T12:02:26.167Z,29.40
2022-12-31T12:04:55.092Z,28.20
2022-12-31T12:07:24.052Z,27.15
2022-12-31T12:09:53.277Z,25.83
2022-12-31T12:12:19.970Z,25.52
2022-12-31T12:14:54.001Z,24.60
2022-12-31T12:17:32.696Z,25.40
2022-12-31T12:20:16.968Z,25.55
2022-12-31T12:22:56.326Z,24.12
2022-12-31T12:25:26.105Z,25.25
2022-12-31T12:28:38.403Z,25.10
2022-12-31T12:31:34.183Z,23.50
2022-12-31T12:34:00.876Z,24.90
2022-12-31T12:36:27.416Z,24.12
2022-12-31T12:39:05.202Z,22.73
2022-12-31T12:41:32.793Z,23.42
2022-12-31T12:44:08.842Z,23.67
2022-12-31T12:47:16.128Z,25.10
2022-12-31T12:50:13.791Z,23.05
2022-12-31T12:52:56.408Z,22.73
2022-12-31T12:55:52.022Z,24.25
2022-12-31T12:58:30.453Z,23.55
2022-12-31T13:01:37.359Z,23.17
2022-12-31T13:07:14.139Z,23.17
2022-12-31T13:10:22.210Z,23.02
2022-12-31T13:13:23.914Z,22.30
2022-12-31T13:15:57.851Z,21.23
2022-12-31T13:18:30.217Z,21.48
2022-12-31T13:24:59.144Z,22.17
2022-12-31T13:27:33.851Z,21.20
2022-12-31T13:30:03.931Z,23.38
2022-12-31T13:32:40.674Z,25.27
2022-12-31T13:35:23.476Z,24.52
2022-12-31T13:37:57.793Z,24.52
2022-12-31T13:40:35.453Z,23.70
2022-12-31T13:43:18.170Z,23.60
2022-12-31T13:45:47.367Z,24.87
2022-12-31T13:48:20.237Z,24.02
2022-12-31T13:51:01.790Z,24.92
2022-12-31T13:53:42.345Z,23.38
2022-12-31T14:00:19.686Z,24.70
2022-12-31T14:03:02.401Z,24.20
2022-12-31T14:05:32.348Z,25.30
2022-12-31T14:08:01.704Z,24.40
2022-12-31T14:10:41.662Z,24.95
2022-12-31T14:16:22.317Z,24.27
2022-12-31T14:19:07.559Z,25.12
2022-12-31T14:21:54.542Z,24.60
2022-12-31T14:24:42.095Z,25.42
2022-12-31T14:27:24.511Z,23.92
2022-12-31T14:30:13.494Z,24.12
2022-12-31T14:35:34.468Z,23.98
2022-12-31T14:38:19.722Z,24.30
2022-12-31T14:41:09.989Z,23.60
2022-12-31T14:43:56.994Z,22.20
2022-12-31T14:46:42.327Z,23.00
2022-12-31T14:49:51.742Z,23.83
2022-12-31T14:52:25.128Z,23.85
2022-12-31T14:55:18.266Z,25.58
2022-12-31T14:58:26.003Z,23.40
2022-12-31T15:04:45.974Z,23.95
2022-12-31T15:07:34.732Z,22.98
2022-12-31T15:10:49.354Z,22.45
2022-12-31T15:13:26.309Z,23.95
2022-12-31T15:16:11.188Z,22.77
2022-12-31T15:24:27.476Z,22.67
2022-12-31T15:27:14.917Z,22.55
2022-12-31T15:29:45.685Z,23.52
2022-12-31T15:32:22.533Z,23.25
2022-12-31T15:49:23.394Z,27.35
2022-12-31T15:54:39.266Z,26.67
2022-12-31T15:57:11.466Z,29.77
2022-12-31T15:59:40.390Z,35.40
2022-12-31T16:02:21.250Z,38.60
2022-12-31T16:04:48.903Z,34.20
2022-12-31T16:07:17.193Z,30.88
2022-12-31T16:10:26.750Z,31.00
2022-12-31T16:13:19.559Z,33.28
2022-12-31T16:15:50.130Z,34.90
2022-12-31T16:18:22.526Z,39.30
2022-12-31T16:20:51.931Z,42.50
2022-12-31T18:10:29.312Z,54.38
2022-12-31T18:48:03.780Z,49.88
2022-12-31T18:50:30.364Z,48.78
2022-12-31T18:52:56.947Z,46.65
2022-12-31T18:55:36.260Z,50.12
2022-12-31T18:58:02.843Z,49.40
2022-12-31T19:01:00.601Z,49.72
2022-12-31T19:06:56.095Z,50.42
2022-12-31T19:09:44.787Z,47.62
2022-12-31T19:12:13.320Z,50.35
2022-12-31T19:14:40.008Z,48.70
2022-12-31T19:19:32.010Z,51.15
2022-12-31T19:21:58.604Z,52.47
2022-12-31T19:24:26.953Z,51.10
2022-12-31T19:26:54.502Z,49.45
2022-12-31T19:29:46.072Z,47.55
2022-12-31T19:32:12.639Z,50.30
2022-12-31T19:37:27.568Z,47.35
2022-12-31T19:39:54.130Z,46.08
2022-12-31T19:42:22.886Z,46.10
2022-12-31T19:44:49.437Z,45.05
2022-12-31T19:47:15.991Z,45.83
2022-12-31T19:50:06.618Z,46.15
2022-12-31T19:56:05.290Z,47.13
2022-12-31T19:58:32.267Z,47.70
2022-12-31T20:01:02.894Z,47.40
2022-12-31T20:03:32.597Z,52.05
2022-12-31T20:06:08.722Z,64.80
2022-12-31T20:08:37.844Z,51.78
2022-12-31T20:11:22.245Z,54.22
2022-12-31T20:13:50.196Z,78.78
2022-12-31T20:16:18.816Z,91.82
2022-12-31T20:18:47.576Z,85.93
2022-12-31T20:21:39.235Z,96.93
2022-12-31T20:24:28.413Z,88.45
2022-12-31T20:41:41.724Z,55.17
2022-12-31T20:44:08.438Z,52.45
2022-12-31T20:46:35.220Z,51.30
2022-12-31T20:49:03.629Z,49.40
2022-12-31T20:51:32.805Z,48.05
2022-12-31T20:54:24.306Z,49.55
2022-12-31T20:57:47.033Z,52.75
2022-12-31T21:00:28.878Z,55.40
2022-12-31T21:03:04.923Z,58.83
2022-12-31T21:05:37.463Z,61.58
2022-12-31T21:08:04.286Z,63.40
2022-12-31T21:10:30.866Z,61.85
2022-12-31T21:12:57.431Z,63.58
2022-12-31T21:15:43.017Z,60.00
2022-12-31T21:18:09.630Z,154.57
2022-12-31T21:20:36.175Z,79.22
2022-12-31T21:23:02.781Z,75.05
2022-12-31T21:25:57.556Z,82.65
2022-12-31T21:28:45.768Z,109.22
2022-12-31T21:31:13.847Z,118.65
2022-12-31T21:33:45.129Z,111.97
2022-12-31T21:36:12.030Z,111.43
2022-12-31T21:38:39.043Z,104.18
2022-12-31T21:41:07.662Z,94.32
2022-12-31T21:43:53.470Z,98.85
2022-12-31T21:46:20.372Z,100.47
2022-12-31T21:48:46.923Z,92.85
2022-12-31T21:51:16.710Z,91.18
2022-12-31T22:00:59.511Z,81.32
2022-12-31T22:03:28.740Z,79.57
2022-12-31T22:06:00.014Z,67.93
2022-12-31T22:08:28.283Z,66.30
2022-12-31T22:10:55.167Z,65.43
2022-12-31T22:16:04.650Z,65.50
2022-12-31T22:18:35.050Z,63.67
2022-12-31T22:21:04.409Z,62.25
2022-12-31T22:23:32.346Z,72.10
2022-12-31T22:25:59.054Z,73.32
2022-12-31T22:29:34.574Z,66.57
2022-12-31T22:32:31.707Z,67.62
2022-12-31T22:34:58.286Z,63.28
2022-12-31T22:37:55.589Z,62.78
2022-12-31T22:40:11.777Z,61.70
2022-12-31T22:42:38.483Z,59.97
2022-12-31T22:45:06.690Z,58.87
2022-12-31T22:47:57.708Z,60.28
2022-12-31T22:50:24.253Z,56.05
2022-12-31T22:52:50.815Z,55.78
2022-12-31T22:55:17.396Z,54.42
2022-12-31T23:02:41.553Z,55.65
2022-12-31T23:05:15.223Z,58.33
2022-12-31T23:07:43.330Z,60.83
2022-12-31T23:10:29.575Z,58.87
2022-12-31T23:12:56.133Z,57.42
2022-12-31T23:15:41.380Z,58.05
2022-12-31T23:18:43.549Z,63.55
2022-12-31T23:21:28.769Z,65.18
2022-12-31T23:23:55.378Z,66.12
2022-12-31T23:26:21.941Z,64.15
2022-12-31T23:29:51.142Z,74.15
2022-12-31T23:32:41.888Z,81.40
2022-12-31T23:35:10.013Z,119.22
2022-12-31T23:37:37.034Z,109.68
2022-12-31T23:40:04.055Z,105.12
2022-12-31T23:42:30.581Z,102.53
2022-12-31T23:44:57.163Z,113.10
2022-12-31T23:49:58.958Z,241.43
2022-12-31T23:52:25.542Z,286.23
2022-12-31T23:55:11.498Z,293.88
2022-12-31T23:57:38.044Z,310.73
